Terminal Aerodrome Forecast
Issued by NWS Cleveland, OH

Home | Current Version | Previous Version | Text Only | Print | Product List | Glossary On
Versions: 1 2 3 4 5 6 7 8 9 10 11 12 13 14 15 16
000
FTUS41 KCLE 300500 RRA
TAFERI
TAF
KERI 300543Z 3006/0106 20004KT P6SM BKN080
     FM301200 22006KT P6SM SCT015 OVC080
      TEMPO 3012/3014 5SM -RA BR OVC015
     FM301400 29006KT 5SM -RA BR SCT005 OVC015
      TEMPO 3014/3018 2SM -RA BR OVC005
     FM301800 34006KT P6SM BKN007 OVC015
     FM010100 36004KT P6SM OVC003=

USA.gov is the U.S. government's official web portal to all federal, state and local government web resources and services.